Time;durP1;ratioP1;P1;durP2;ratioP2;P2;SDS_P1;SDS_P2;PMS_P1;PMS_P2;Temp;Humidity;BMP_temperature;BMP_pressure;BME280_temperature;BME280_humidity;BME280_pressure;Samples;Min_cycle;Max_cycle;Signal;HPM_P1;HPM_P2
2023/10/22 00:00:49;;;;;;;0.30;0.30;;;;;;;;;;5031559;28;20196;-43
2023/10/22 00:03:15;;;;;;;0.40;0.30;;;;;;;;;;5028178;28;20188;-43
2023/10/22 00:05:41;;;;;;;0.77;0.20;;;;;;;;;;5032824;28;20208;-43
2023/10/22 00:08:07;;;;;;;0.20;0.20;;;;;;;;;;5032726;28;20230;-43
2023/10/22 00:10:33;;;;;;;0.80;0.30;;;;;;;;;;5025614;28;20276;-43
2023/10/22 00:12:59;;;;;;;0.38;0.38;;;;;;;;;;5034942;28;20202;-43
2023/10/22 00:15:25;;;;;;;0.30;0.30;;;;;;;;;;5031916;28;20615;-43
2023/10/22 00:17:51;;;;;;;1.40;0.35;;;;;;;;;;5036373;28;20300;-43
2023/10/22 00:20:17;;;;;;;0.88;0.30;;;;;;;;;;5032993;28;20199;-43
2023/10/22 00:22:43;;;;;;;0.32;0.32;;;;;;;;;;5027977;28;20547;-43
2023/10/22 00:25:09;;;;;;;0.75;0.20;;;;;;;;;;5033826;28;20266;-43
2023/10/22 00:27:35;;;;;;;0.28;0.28;;;;;;;;;;5031213;28;20238;-43
2023/10/22 00:30:01;;;;;;;1.25;0.40;;;;;;;;;;5024686;28;20491;-43
2023/10/22 00:32:28;;;;;;;0.65;0.57;;;;;;;;;;5036303;28;20572;-43
2023/10/22 00:34:54;;;;;;;0.35;0.35;;;;;;;;;;5032929;28;20483;-43
2023/10/22 00:37:20;;;;;;;0.30;0.30;;;;;;;;;;5032368;28;20194;-43
2023/10/22 00:39:46;;;;;;;0.30;0.30;;;;;;;;;;5033360;28;20461;-43
2023/10/22 00:42:12;;;;;;;1.30;0.30;;;;;;;;;;5026631;28;20237;-43
2023/10/22 00:44:38;;;;;;;1.02;0.50;;;;;;;;;;5027560;28;20184;-43
2023/10/22 00:47:04;;;;;;;0.88;0.32;;;;;;;;;;5031500;28;20271;-43
2023/10/22 00:49:30;;;;;;;0.57;0.40;;;;;;;;;;5026958;28;20191;-43
2023/10/22 00:51:57;;;;;;;1.58;0.40;;;;;;;;;;5028395;28;20207;-43
2023/10/22 00:54:25;;;;;;;0.30;0.30;;;;;;;;;;5031273;28;20188;-43
2023/10/22 00:56:51;;;;;;;0.60;0.40;;;;;;;;;;5036585;28;20251;-43
2023/10/22 00:59:18;;;;;;;0.63;0.55;;;;;;;;;;5024601;28;20196;-43
2023/10/22 01:01:45;;;;;;;0.30;0.30;;;;;;;;;;5030981;28;20188;-42
2023/10/22 01:04:12;;;;;;;0.73;0.40;;;;;;;;;;5026751;28;20266;-42
2023/10/22 01:06:38;;;;;;;0.65;0.43;;;;;;;;;;5031377;28;20268;-42
2023/10/22 01:09:05;;;;;;;0.60;0.32;;;;;;;;;;5025891;28;20602;-42
2023/10/22 01:11:32;;;;;;;0.43;0.32;;;;;;;;;;5025220;28;20234;-42
2023/10/22 01:13:58;;;;;;;0.40;0.35;;;;;;;;;;5029194;28;20179;-42
2023/10/22 01:16:24;;;;;;;1.30;0.40;;;;;;;;;;5028803;28;20198;-42
2023/10/22 01:18:50;;;;;;;0.55;0.40;;;;;;;;;;5031388;28;20176;-42
2023/10/22 01:21:16;;;;;;;1.08;0.40;;;;;;;;;;5033695;28;20429;-42
2023/10/22 01:23:42;;;;;;;0.28;0.28;;;;;;;;;;5030642;28;20179;-42
2023/10/22 01:26:08;;;;;;;0.30;0.30;;;;;;;;;;5030327;28;20262;-42
2023/10/22 01:28:35;;;;;;;0.73;0.40;;;;;;;;;;5031250;28;20191;-42
2023/10/22 01:31:01;;;;;;;0.60;0.38;;;;;;;;;;5034612;28;20854;-42
2023/10/22 01:33:27;;;;;;;1.20;0.30;;;;;;;;;;5028659;28;20184;-42
2023/10/22 01:35:53;;;;;;;0.90;0.40;;;;;;;;;;5027549;28;20192;-42
2023/10/22 01:38:18;;;;;;;0.80;0.50;;;;;;;;;;5029500;28;20458;-42
2023/10/22 01:40:44;;;;;;;1.10;0.47;;;;;;;;;;5036169;28;20262;-42
2023/10/22 01:43:10;;;;;;;1.05;0.40;;;;;;;;;;5027111;28;20198;-42
2023/10/22 01:45:36;;;;;;;0.30;0.20;;;;;;;;;;5024772;28;20472;-42
2023/10/22 01:48:02;;;;;;;0.75;0.47;;;;;;;;;;5025689;28;20271;-42
2023/10/22 01:50:28;;;;;;;0.30;0.20;;;;;;;;;;5024053;28;20624;-42
2023/10/22 01:52:54;;;;;;;0.43;0.25;;;;;;;;;;5026495;28;20582;-42
2023/10/22 01:55:20;;;;;;;0.45;0.30;;;;;;;;;;5031392;28;20240;-42
2023/10/22 01:57:46;;;;;;;0.40;0.40;;;;;;;;;;5028149;28;20217;-42
2023/10/22 02:00:12;;;;;;;0.30;0.30;;;;;;;;;;5033103;28;20289;-42
2023/10/22 02:02:41;;;;;;;0.43;0.30;;;;;;;;;;5028415;28;20203;-42
2023/10/22 02:05:07;;;;;;;0.30;0.30;;;;;;;;;;5030679;28;20562;-42
2023/10/22 02:07:33;;;;;;;0.30;0.30;;;;;;;;;;5027110;28;20208;-42
2023/10/22 02:09:59;;;;;;;0.75;0.50;;;;;;;;;;5019996;28;20175;-42
2023/10/22 02:12:29;;;;;;;0.45;0.40;;;;;;;;;;5029459;28;20583;-42
2023/10/22 02:14:54;;;;;;;0.20;0.20;;;;;;;;;;5023054;28;20210;-42
2023/10/22 02:17:20;;;;;;;0.80;0.20;;;;;;;;;;5031507;28;20183;-42
2023/10/22 02:19:46;;;;;;;0.30;0.30;;;;;;;;;;5033014;28;20180;-42
2023/10/22 02:22:12;;;;;;;0.65;0.32;;;;;;;;;;5032544;28;20183;-42
2023/10/22 02:24:39;;;;;;;0.20;0.20;;;;;;;;;;5034044;28;20555;-42
2023/10/22 02:27:05;;;;;;;0.38;0.20;;;;;;;;;;5031267;28;20261;-42
2023/10/22 02:29:31;;;;;;;0.57;0.28;;;;;;;;;;5021078;28;20622;-42
2023/10/22 02:31:57;;;;;;;0.60;0.50;;;;;;;;;;5034263;28;20494;-42
2023/10/22 02:34:23;;;;;;;0.32;0.30;;;;;;;;;;5032166;28;20179;-42
2023/10/22 02:36:49;;;;;;;0.40;0.28;;;;;;;;;;5026600;28;20539;-42
2023/10/22 02:39:15;;;;;;;0.30;0.30;;;;;;;;;;5025370;28;20188;-42
2023/10/22 02:41:41;;;;;;;1.05;0.50;;;;;;;;;;5025261;28;20175;-42
2023/10/22 02:44:07;;;;;;;0.63;0.30;;;;;;;;;;5026901;28;20179;-42
2023/10/22 02:46:34;;;;;;;0.30;0.30;;;;;;;;;;5032396;28;20269;-42
2023/10/22 02:48:59;;;;;;;0.30;0.30;;;;;;;;;;5027544;28;20186;-42
2023/10/22 02:51:25;;;;;;;0.80;0.30;;;;;;;;;;5027180;28;20204;-42
2023/10/22 02:53:51;;;;;;;0.22;0.20;;;;;;;;;;5029679;28;20187;-42
2023/10/22 02:56:17;;;;;;;0.47;0.30;;;;;;;;;;5023712;28;20234;-42
2023/10/22 02:58:43;;;;;;;0.25;0.20;;;;;;;;;;5020470;28;20208;-42
2023/10/22 03:01:10;;;;;;;0.38;0.32;;;;;;;;;;5032365;28;20257;-42
2023/10/22 03:03:40;;;;;;;1.08;0.40;;;;;;;;;;5030364;28;20187;-42
2023/10/22 03:06:08;;;;;;;0.38;0.32;;;;;;;;;;5028308;28;20253;-42
2023/10/22 03:08:35;;;;;;;0.80;0.30;;;;;;;;;;5029527;28;20325;-42
2023/10/22 03:11:01;;;;;;;0.20;0.20;;;;;;;;;;5026302;28;20199;-42
2023/10/22 03:13:27;;;;;;;0.80;0.35;;;;;;;;;;5029396;28;20188;-42
2023/10/22 03:15:53;;;;;;;0.57;0.32;;;;;;;;;;5034038;28;20179;-42
2023/10/22 03:18:19;;;;;;;0.40;0.40;;;;;;;;;;5029826;28;20188;-42
2023/10/22 03:20:46;;;;;;;0.50;0.30;;;;;;;;;;5033746;28;20266;-42
2023/10/22 03:23:12;;;;;;;2.50;0.40;;;;;;;;;;5034641;28;20168;-42
2023/10/22 03:25:39;;;;;;;0.32;0.20;;;;;;;;;;5024159;28;20187;-42
2023/10/22 03:28:06;;;;;;;0.43;0.28;;;;;;;;;;5021163;28;20172;-42
2023/10/22 03:30:33;;;;;;;0.63;0.35;;;;;;;;;;5023353;28;20172;-42
2023/10/22 03:32:59;;;;;;;0.30;0.30;;;;;;;;;;5024067;28;20215;-42
2023/10/22 03:35:25;;;;;;;0.40;0.40;;;;;;;;;;5028547;28;20219;-42
2023/10/22 03:37:51;;;;;;;0.20;0.20;;;;;;;;;;5033478;28;20196;-42
2023/10/22 03:40:17;;;;;;;0.25;0.25;;;;;;;;;;5029553;28;20189;-42
2023/10/22 03:42:43;;;;;;;0.35;0.35;;;;;;;;;;5033620;28;20474;-42
2023/10/22 03:45:09;;;;;;;0.57;0.50;;;;;;;;;;5035340;28;20183;-42
2023/10/22 03:47:35;;;;;;;0.30;0.30;;;;;;;;;;5037285;28;20188;-42
2023/10/22 03:50:02;;;;;;;0.75;0.40;;;;;;;;;;5026883;28;20254;-42
2023/10/22 03:52:28;;;;;;;0.60;0.40;;;;;;;;;;5026286;28;20205;-42
2023/10/22 03:54:54;;;;;;;0.40;0.38;;;;;;;;;;5029085;28;20191;-42
2023/10/22 03:57:20;;;;;;;0.75;0.30;;;;;;;;;;5033321;28;20184;-42
2023/10/22 03:59:46;;;;;;;0.85;0.60;;;;;;;;;;5035551;28;20253;-42
2023/10/22 04:02:12;;;;;;;1.65;0.40;;;;;;;;;;5029519;28;20482;-42
2023/10/22 04:04:38;;;;;;;0.52;0.50;;;;;;;;;;5029877;28;20200;-42
2023/10/22 04:07:04;;;;;;;0.52;0.45;;;;;;;;;;5031935;28;20227;-42
2023/10/22 04:09:30;;;;;;;0.75;0.57;;;;;;;;;;5028000;28;20227;-42
2023/10/22 04:11:56;;;;;;;0.60;0.60;;;;;;;;;;5022392;28;20213;-42
2023/10/22 04:14:22;;;;;;;0.93;0.77;;;;;;;;;;5031171;28;20184;-42
2023/10/22 04:16:51;;;;;;;0.70;0.60;;;;;;;;;;5032263;28;20188;-42
2023/10/22 04:19:17;;;;;;;1.13;0.68;;;;;;;;;;5035001;28;20266;-42
2023/10/22 04:21:43;;;;;;;1.02;0.80;;;;;;;;;;5028561;28;20582;-42
2023/10/22 04:24:09;;;;;;;0.57;0.50;;;;;;;;;;5028624;28;20192;-42
2023/10/22 04:26:35;;;;;;;1.20;0.70;;;;;;;;;;5029374;28;20189;-42
2023/10/22 04:29:01;;;;;;;0.52;0.40;;;;;;;;;;5035697;28;20564;-42
2023/10/22 04:31:27;;;;;;;0.50;0.50;;;;;;;;;;5028806;28;20226;-42
2023/10/22 04:33:54;;;;;;;0.75;0.60;;;;;;;;;;5031439;28;20628;-42
2023/10/22 04:36:20;;;;;;;1.20;0.65;;;;;;;;;;5035363;28;20598;-42
2023/10/22 04:38:48;;;;;;;0.35;0.35;;;;;;;;;;5035990;28;20184;-43
2023/10/22 04:41:14;;;;;;;0.98;0.68;;;;;;;;;;5029941;28;20188;-42
2023/10/22 04:43:41;;;;;;;1.13;0.75;;;;;;;;;;5027842;28;20193;-42
2023/10/22 04:46:07;;;;;;;0.77;0.50;;;;;;;;;;5033486;28;20942;-42
2023/10/22 04:48:33;;;;;;;1.88;0.80;;;;;;;;;;5027297;28;20187;-42
2023/10/22 04:51:03;;;;;;;0.50;0.50;;;;;;;;;;5029451;28;20587;-42
2023/10/22 04:53:29;;;;;;;1.95;0.90;;;;;;;;;;5032031;28;20262;-42
2023/10/22 04:55:56;;;;;;;1.00;0.80;;;;;;;;;;5033907;28;20279;-42
2023/10/22 04:58:22;;;;;;;3.53;0.60;;;;;;;;;;5031151;28;20184;-42
2023/10/22 05:00:48;;;;;;;1.50;0.73;;;;;;;;;;5032262;28;20229;-42
2023/10/22 05:03:14;;;;;;;0.80;0.75;;;;;;;;;;5032507;28;20219;-42
2023/10/22 05:05:40;;;;;;;2.17;0.70;;;;;;;;;;5019972;28;20184;-42
2023/10/22 05:08:06;;;;;;;0.93;0.68;;;;;;;;;;5027347;28;20261;-42
2023/10/22 05:10:38;;;;;;;0.63;0.63;;;;;;;;;;5030875;28;20246;-42
2023/10/22 05:13:04;;;;;;;0.52;0.52;;;;;;;;;;5026900;28;20452;-42
2023/10/22 05:15:30;;;;;;;1.00;0.70;;;;;;;;;;5030208;28;20707;-42
2023/10/22 05:17:57;;;;;;;1.23;0.63;;;;;;;;;;5029228;28;20227;-42
2023/10/22 05:20:23;;;;;;;0.75;0.75;;;;;;;;;;5031862;28;20180;-42
2023/10/22 05:22:50;;;;;;;0.88;0.73;;;;;;;;;;5032594;28;20196;-42
2023/10/22 05:25:16;;;;;;;0.55;0.55;;;;;;;;;;5026201;28;20180;-42
2023/10/22 05:27:41;;;;;;;0.85;0.55;;;;;;;;;;5029841;28;20188;-42
2023/10/22 05:30:08;;;;;;;1.60;0.82;;;;;;;;;;5034524;28;20175;-42
2023/10/22 05:32:34;;;;;;;0.68;0.68;;;;;;;;;;5034438;28;20593;-42
2023/10/22 05:35:03;;;;;;;1.33;0.80;;;;;;;;;;5033822;28;20191;-42
2023/10/22 05:37:29;;;;;;;0.70;0.70;;;;;;;;;;5029379;28;20174;-42
2023/10/22 05:39:56;;;;;;;2.03;0.95;;;;;;;;;;5025818;28;20180;-42
2023/10/22 05:42:22;;;;;;;0.80;0.73;;;;;;;;;;5030428;28;20271;-42
2023/10/22 05:44:48;;;;;;;0.93;0.80;;;;;;;;;;5024051;28;20279;-42
2023/10/22 05:47:14;;;;;;;0.70;0.70;;;;;;;;;;5025823;28;20306;-42
2023/10/22 05:49:40;;;;;;;1.15;0.90;;;;;;;;;;5027558;28;20261;-42
2023/10/22 05:52:06;;;;;;;1.02;0.77;;;;;;;;;;5025354;28;20218;-42
2023/10/22 05:54:33;;;;;;;0.80;0.80;;;;;;;;;;5033603;28;20246;-42
2023/10/22 05:56:59;;;;;;;0.57;0.57;;;;;;;;;;5033320;28;20188;-42
2023/10/22 05:59:25;;;;;;;0.70;0.68;;;;;;;;;;5022110;28;20466;-42
2023/10/22 06:01:50;;;;;;;0.90;0.88;;;;;;;;;;5027978;28;20184;-42
2023/10/22 06:04:16;;;;;;;1.00;0.85;;;;;;;;;;5031187;28;20282;-42
2023/10/22 06:06:42;;;;;;;0.90;0.80;;;;;;;;;;5033498;28;20192;-42
2023/10/22 06:09:10;;;;;;;1.52;1.00;;;;;;;;;;5029781;28;20204;-42
2023/10/22 06:11:37;;;;;;;1.58;1.42;;;;;;;;;;5024309;28;20189;-42
2023/10/22 06:14:03;;;;;;;2.05;1.83;;;;;;;;;;5028078;28;20183;-42
2023/10/22 06:16:30;;;;;;;1.73;1.52;;;;;;;;;;5035106;28;20184;-42
2023/10/22 06:18:57;;;;;;;2.67;1.70;;;;;;;;;;5032827;28;20234;-42
2023/10/22 06:21:23;;;;;;;2.83;2.33;;;;;;;;;;5028219;28;20210;-42
2023/10/22 06:23:49;;;;;;;3.38;2.50;;;;;;;;;;5026847;28;20657;-42
2023/10/22 06:26:15;;;;;;;2.55;2.13;;;;;;;;;;5031819;28;20470;-42
2023/10/22 06:28:42;;;;;;;3.53;2.05;;;;;;;;;;5026108;28;20794;-42
2023/10/22 06:31:09;;;;;;;2.20;2.00;;;;;;;;;;5033116;28;20203;-42
2023/10/22 06:33:35;;;;;;;3.53;2.63;;;;;;;;;;5029214;28;20449;-42
2023/10/22 06:36:18;;;;;;;2.80;2.53;;;;;;;;;;5030175;28;20180;-42
2023/10/22 06:38:45;;;;;;;2.72;2.20;;;;;;;;;;5032707;28;20184;-42
2023/10/22 06:41:15;;;;;;;2.17;1.98;;;;;;;;;;5027965;28;20221;-42
2023/10/22 06:43:41;;;;;;;4.70;1.80;;;;;;;;;;5028539;28;20184;-42
2023/10/22 06:46:07;;;;;;;3.67;1.60;;;;;;;;;;5028193;28;20218;-42
2023/10/22 06:48:34;;;;;;;2.10;1.40;;;;;;;;;;5019252;28;20192;-42
2023/10/22 06:51:00;;;;;;;1.15;0.80;;;;;;;;;;5029243;28;20195;-42
2023/10/22 06:53:26;;;;;;;1.00;0.90;;;;;;;;;;5029932;28;20208;-42
2023/10/22 06:55:52;;;;;;;2.05;1.15;;;;;;;;;;5030419;28;20582;-42
2023/10/22 06:58:18;;;;;;;2.63;1.15;;;;;;;;;;5029258;28;20188;-42
2023/10/22 07:00:43;;;;;;;1.63;1.38;;;;;;;;;;5024918;28;20199;-42
2023/10/22 07:03:10;;;;;;;2.00;1.00;;;;;;;;;;5028751;28;20182;-42
2023/10/22 07:05:36;;;;;;;1.60;0.93;;;;;;;;;;5033792;28;20551;-42
2023/10/22 07:08:01;;;;;;;0.90;0.90;;;;;;;;;;5026730;28;20259;-42
2023/10/22 07:10:27;;;;;;;2.10;0.80;;;;;;;;;;5028261;28;20211;-42
2023/10/22 07:12:53;;;;;;;1.05;0.90;;;;;;;;;;5020502;28;20235;-42
2023/10/22 07:15:19;;;;;;;1.02;0.90;;;;;;;;;;5032396;28;20180;-42
2023/10/22 07:17:47;;;;;;;1.83;1.15;;;;;;;;;;5030321;28;20488;-42
2023/10/22 07:20:13;;;;;;;1.80;0.80;;;;;;;;;;5032066;28;20176;-42
2023/10/22 07:22:39;;;;;;;1.70;1.17;;;;;;;;;;5023778;28;20192;-42
2023/10/22 07:25:06;;;;;;;3.35;1.30;;;;;;;;;;5028074;28;20210;-42
2023/10/22 07:27:32;;;;;;;1.75;1.20;;;;;;;;;;5032935;28;20176;-42
2023/10/22 07:29:58;;;;;;;2.03;0.98;;;;;;;;;;5030718;28;20183;-43
2023/10/22 07:32:24;;;;;;;0.88;0.73;;;;;;;;;;5033625;28;20203;-43
2023/10/22 07:34:50;;;;;;;1.15;0.70;;;;;;;;;;5024735;28;20215;-43
2023/10/22 07:37:16;;;;;;;1.38;0.80;;;;;;;;;;5028924;28;20250;-43
2023/10/22 07:39:42;;;;;;;2.88;1.00;;;;;;;;;;5026182;28;20185;-43
2023/10/22 07:42:08;;;;;;;0.95;0.73;;;;;;;;;;5028608;28;20191;-43
2023/10/22 07:44:34;;;;;;;1.50;0.63;;;;;;;;;;5022136;28;20493;-43
2023/10/22 07:47:00;;;;;;;1.63;0.68;;;;;;;;;;5018663;28;20204;-43
2023/10/22 07:49:26;;;;;;;1.40;0.73;;;;;;;;;;5026475;28;20196;-43
2023/10/22 07:51:52;;;;;;;2.72;0.73;;;;;;;;;;5022979;28;20201;-43
2023/10/22 07:54:18;;;;;;;1.55;0.80;;;;;;;;;;5030604;28;20191;-43
2023/10/22 07:56:44;;;;;;;1.42;0.60;;;;;;;;;;5021474;28;20176;-43
2023/10/22 07:59:10;;;;;;;1.05;0.77;;;;;;;;;;5027434;28;20197;-43
2023/10/22 08:01:36;;;;;;;0.70;0.70;;;;;;;;;;5020868;28;20230;-43
2023/10/22 08:04:02;;;;;;;0.98;0.60;;;;;;;;;;5023347;28;20454;-43
2023/10/22 08:06:28;;;;;;;0.68;0.57;;;;;;;;;;5032794;28;20530;-44
2023/10/22 08:08:56;;;;;;;0.80;0.80;;;;;;;;;;5019978;28;20249;-43
2023/10/22 08:11:21;;;;;;;0.52;0.52;;;;;;;;;;5022647;28;20216;-44
2023/10/22 08:13:48;;;;;;;0.73;0.60;;;;;;;;;;5024120;28;20271;-44
2023/10/22 08:16:14;;;;;;;0.85;0.65;;;;;;;;;;5032878;28;20187;-43
2023/10/22 08:18:41;;;;;;;0.47;0.47;;;;;;;;;;5025723;28;20172;-43
2023/10/22 08:21:07;;;;;;;1.25;0.70;;;;;;;;;;5032504;28;20231;-43
2023/10/22 08:23:33;;;;;;;0.98;0.65;;;;;;;;;;5032374;28;20211;-43
2023/10/22 08:25:59;;;;;;;1.48;0.73;;;;;;;;;;5034438;28;20195;-44
2023/10/22 08:28:25;;;;;;;0.93;0.70;;;;;;;;;;5032805;28;20271;-43
2023/10/22 08:30:51;;;;;;;0.85;0.85;;;;;;;;;;5031189;28;20264;-43
2023/10/22 08:33:18;;;;;;;0.40;0.40;;;;;;;;;;5031728;28;20192;-42
2023/10/22 08:35:44;;;;;;;0.75;0.63;;;;;;;;;;5036848;28;20176;-43
2023/10/22 08:38:10;;;;;;;1.13;0.60;;;;;;;;;;5031783;28;20244;-43
2023/10/22 08:40:41;;;;;;;0.50;0.50;;;;;;;;;;5024765;28;20211;-43
2023/10/22 08:43:11;;;;;;;1.23;0.60;;;;;;;;;;5034587;28;20564;-43
2023/10/22 08:45:37;;;;;;;0.75;0.52;;;;;;;;;;5029419;28;20187;-43
2023/10/22 08:48:06;;;;;;;1.23;0.70;;;;;;;;;;5028711;28;20176;-43
2023/10/22 08:50:33;;;;;;;0.45;0.45;;;;;;;;;;5032038;28;20212;-44
2023/10/22 08:52:59;;;;;;;0.57;0.52;;;;;;;;;;5030460;28;20218;-44
2023/10/22 08:55:26;;;;;;;1.67;0.60;;;;;;;;;;5028643;28;20181;-44
2023/10/22 08:57:52;;;;;;;0.50;0.50;;;;;;;;;;5032571;28;20177;-43
2023/10/22 09:00:18;;;;;;;0.90;0.60;;;;;;;;;;5031117;28;20200;-43
2023/10/22 09:02:44;;;;;;;0.90;0.52;;;;;;;;;;5026438;28;20180;-43
2023/10/22 09:05:11;;;;;;;2.53;0.60;;;;;;;;;;5029448;28;20597;-43
2023/10/22 09:07:53;;;;;;;0.70;0.70;;;;;;;;;;5028754;28;20181;-43
2023/10/22 09:10:25;;;;;;;1.08;0.70;;;;;;;;;;5030539;28;20705;-43
2023/10/22 09:12:52;;;;;;;1.17;0.73;;;;;;;;;;5029384;28;20327;-43
2023/10/22 09:15:18;;;;;;;0.90;0.60;;;;;;;;;;5030657;28;20175;-43
2023/10/22 09:17:44;;;;;;;0.60;0.60;;;;;;;;;;5024928;28;20182;-44
2023/10/22 09:20:30;;;;;;;1.23;0.70;;;;;;;;;;5034586;28;20216;-44
2023/10/22 09:23:12;;;;;;;2.35;0.75;;;;;;;;;;5025401;28;20515;-44
2023/10/22 09:25:40;;;;;;;1.45;0.77;;;;;;;;;;5023724;28;20183;-44
2023/10/22 09:28:12;;;;;;;2.33;0.90;;;;;;;;;;5033213;28;20200;-44
2023/10/22 09:30:40;;;;;;;0.93;0.73;;;;;;;;;;5040073;28;20191;-44
2023/10/22 09:33:08;;;;;;;0.60;0.60;;;;;;;;;;5027654;28;20620;-43
2023/10/22 09:35:34;;;;;;;1.42;0.95;;;;;;;;;;5033013;28;20191;-44
2023/10/22 09:38:00;;;;;;;0.95;0.80;;;;;;;;;;5033687;28;20180;-43
2023/10/22 09:40:26;;;;;;;1.55;0.80;;;;;;;;;;5027848;28;20175;-43
2023/10/22 09:42:52;;;;;;;0.80;0.80;;;;;;;;;;5024028;28;20184;-43
2023/10/22 09:45:20;;;;;;;1.30;0.80;;;;;;;;;;5023867;28;20427;-43
2023/10/22 09:47:49;;;;;;;1.05;0.73;;;;;;;;;;5031240;28;20497;-43
2023/10/22 09:50:18;;;;;;;0.93;0.70;;;;;;;;;;5022695;28;20268;-43
2023/10/22 09:52:44;;;;;;;0.60;0.60;;;;;;;;;;5029714;28;20290;-44
2023/10/22 09:55:13;;;;;;;1.05;0.75;;;;;;;;;;5027308;28;20212;-44
2023/10/22 09:57:40;;;;;;;0.73;0.70;;;;;;;;;;5035668;28;20178;-44
2023/10/22 10:00:10;;;;;;;0.73;0.73;;;;;;;;;;5029504;28;20245;-44
2023/10/22 10:02:36;;;;;;;0.98;0.80;;;;;;;;;;5032838;28;20551;-44
2023/10/22 10:05:03;;;;;;;1.15;1.00;;;;;;;;;;5025489;28;20559;-44
2023/10/22 10:07:30;;;;;;;1.88;0.90;;;;;;;;;;5031529;28;20542;-44
2023/10/22 10:09:57;;;;;;;0.52;0.52;;;;;;;;;;5022760;28;20613;-44
2023/10/22 10:12:25;;;;;;;2.45;0.80;;;;;;;;;;5027336;28;20261;-44
2023/10/22 10:14:51;;;;;;;0.60;0.60;;;;;;;;;;5021878;28;20172;-44
2023/10/22 10:17:19;;;;;;;0.60;0.60;;;;;;;;;;5026057;28;20168;-44
2023/10/22 10:19:47;;;;;;;2.75;1.20;;;;;;;;;;5021541;28;20176;-44
2023/10/22 10:22:32;;;;;;;14.38;7.13;;;;;;;;;;5028782;28;20176;-44
2023/10/22 10:25:17;;;;;;;37.42;19.27;;;;;;;;;;5029900;28;20227;-44
2023/10/22 10:27:50;;;;;;;43.80;24.70;;;;;;;;;;5015526;28;20754;-44
2023/10/22 10:30:17;;;;;;;43.85;24.77;;;;;;;;;;5021122;28;20571;-44
2023/10/22 10:32:43;;;;;;;41.03;23.45;;;;;;;;;;5022667;28;20223;-44
2023/10/22 10:35:09;;;;;;;36.28;21.48;;;;;;;;;;5021893;28;20177;-44
2023/10/22 10:37:35;;;;;;;29.67;17.92;;;;;;;;;;5023117;28;20266;-44
2023/10/22 10:40:04;;;;;;;31.48;17.85;;;;;;;;;;5027896;28;20260;-44
2023/10/22 10:42:30;;;;;;;30.52;16.48;;;;;;;;;;5026435;28;20187;-44
2023/10/22 10:44:59;;;;;;;30.67;17.05;;;;;;;;;;5027934;28;20184;-44
2023/10/22 10:47:25;;;;;;;26.75;15.68;;;;;;;;;;5023528;28;20218;-44
2023/10/22 10:50:05;;;;;;;27.98;14.95;;;;;;;;;;5028567;28;20222;-44
2023/10/22 10:52:32;;;;;;;22.27;13.80;;;;;;;;;;5029344;28;20207;-44
2023/10/22 10:54:58;;;;;;;24.05;14.07;;;;;;;;;;5026510;28;20222;-44
2023/10/22 10:57:32;;;;;;;22.55;13.02;;;;;;;;;;5026334;28;20176;-43
2023/10/22 10:59:58;;;;;;;19.27;10.88;;;;;;;;;;5034605;28;20195;-44
2023/10/22 11:02:26;;;;;;;19.27;11.13;;;;;;;;;;5033920;28;20259;-44
2023/10/22 11:04:52;;;;;;;17.23;10.32;;;;;;;;;;5026732;28;20192;-43
2023/10/22 11:07:22;;;;;;;17.25;9.60;;;;;;;;;;5029622;28;20192;-43
2023/10/22 11:09:48;;;;;;;13.85;8.55;;;;;;;;;;5019660;28;20444;-44
2023/10/22 11:12:14;;;;;;;17.77;10.82;;;;;;;;;;5029737;28;20199;-43
2023/10/22 11:14:40;;;;;;;21.13;12.82;;;;;;;;;;5028238;28;20184;-44
2023/10/22 11:17:06;;;;;;;27.35;14.73;;;;;;;;;;5032721;28;20636;-44
2023/10/22 11:19:33;;;;;;;24.20;14.40;;;;;;;;;;5028056;28;20188;-44
2023/10/22 11:21:59;;;;;;;23.00;14.73;;;;;;;;;;5032236;28;20566;-44
2023/10/22 11:24:30;;;;;;;29.80;18.23;;;;;;;;;;5027165;28;20279;-44
2023/10/22 11:26:57;;;;;;;37.83;21.13;;;;;;;;;;5027246;28;20234;-44
2023/10/22 11:29:23;;;;;;;44.58;23.55;;;;;;;;;;5029944;28;20582;-44
2023/10/22 11:31:59;;;;;;;43.97;22.65;;;;;;;;;;5031926;28;20621;-44
2023/10/22 11:34:25;;;;;;;38.10;20.70;;;;;;;;;;5030421;28;20180;-44
2023/10/22 11:37:00;;;;;;;35.17;20.05;;;;;;;;;;5030391;28;20195;-44
2023/10/22 11:39:34;;;;;;;33.45;18.95;;;;;;;;;;5022375;28;20176;-44
2023/10/22 11:42:00;;;;;;;32.25;17.98;;;;;;;;;;5028706;28;20184;-44
2023/10/22 11:44:33;;;;;;;34.03;17.70;;;;;;;;;;5027218;28;20611;-44
2023/10/22 11:47:00;;;;;;;33.20;17.85;;;;;;;;;;5027613;28;20582;-44
2023/10/22 11:49:26;;;;;;;31.17;14.88;;;;;;;;;;5028186;28;20199;-44
2023/10/22 11:51:53;;;;;;;25.13;14.95;;;;;;;;;;5025016;28;20611;-44
2023/10/22 11:54:19;;;;;;;25.15;14.57;;;;;;;;;;5024485;28;20258;-44
2023/10/22 11:56:45;;;;;;;25.45;13.70;;;;;;;;;;5029098;28;20191;-43
2023/10/22 11:59:11;;;;;;;26.45;12.20;;;;;;;;;;5038216;28;20464;-44
2023/10/22 12:01:40;;;;;;;22.25;11.73;;;;;;;;;;5029399;28;20207;-44
2023/10/22 12:04:06;;;;;;;19.27;10.45;;;;;;;;;;5036829;28;20164;-44
2023/10/22 12:06:32;;;;;;;22.92;10.73;;;;;;;;;;5032370;28;20260;-44
2023/10/22 12:08:58;;;;;;;16.63;10.13;;;;;;;;;;5026949;28;20274;-44
2023/10/22 12:11:25;;;;;;;18.73;9.25;;;;;;;;;;5029741;28;20301;-44
2023/10/22 12:13:51;;;;;;;15.98;8.70;;;;;;;;;;5029030;28;20182;-44
2023/10/22 12:16:17;;;;;;;15.02;8.63;;;;;;;;;;5020631;28;20180;-44
2023/10/22 12:18:43;;;;;;;17.95;8.43;;;;;;;;;;5029202;28;20263;-44
2023/10/22 12:21:09;;;;;;;13.75;7.00;;;;;;;;;;5036864;28;20195;-44
2023/10/22 12:23:35;;;;;;;10.65;6.45;;;;;;;;;;5027198;28;20195;-44
2023/10/22 12:26:02;;;;;;;11.73;6.07;;;;;;;;;;5032601;28;20190;-44
2023/10/22 12:28:28;;;;;;;15.60;6.50;;;;;;;;;;5031467;28;20176;-44
2023/10/22 12:30:54;;;;;;;10.38;5.28;;;;;;;;;;5033801;28;20230;-44
2023/10/22 12:33:20;;;;;;;10.95;5.18;;;;;;;;;;5026867;28;20202;-44
2023/10/22 12:35:46;;;;;;;7.15;4.40;;;;;;;;;;5034770;28;20546;-44
2023/10/22 12:38:12;;;;;;;9.02;4.63;;;;;;;;;;5032875;28;20193;-44
2023/10/22 12:40:38;;;;;;;8.52;4.57;;;;;;;;;;5036084;28;20206;-44
2023/10/22 12:43:05;;;;;;;5.68;3.75;;;;;;;;;;5026007;28;20191;-44
2023/10/22 12:45:31;;;;;;;7.93;3.80;;;;;;;;;;5035616;28;20186;-44
2023/10/22 12:47:57;;;;;;;6.72;3.42;;;;;;;;;;5031310;28;20176;-45
2023/10/22 12:50:23;;;;;;;7.13;3.40;;;;;;;;;;5026511;28;20187;-44
2023/10/22 12:52:49;;;;;;;4.78;3.25;;;;;;;;;;5030404;28;20479;-44
2023/10/22 12:55:15;;;;;;;4.32;2.40;;;;;;;;;;5031347;28;20268;-44
2023/10/22 12:57:41;;;;;;;6.07;2.78;;;;;;;;;;5025171;28;20180;-44
2023/10/22 13:00:12;;;;;;;5.45;3.10;;;;;;;;;;5036934;28;20267;-44
2023/10/22 13:02:38;;;;;;;4.78;2.50;;;;;;;;;;5031315;28;20203;-44
2023/10/22 13:05:07;;;;;;;4.53;2.40;;;;;;;;;;5025269;28;20214;-44
2023/10/22 13:07:33;;;;;;;2.92;1.88;;;;;;;;;;5017967;28;20187;-44
2023/10/22 13:09:59;;;;;;;5.07;2.55;;;;;;;;;;5026640;28;20195;-44
2023/10/22 13:12:25;;;;;;;2.58;1.88;;;;;;;;;;5032658;28;20341;-44
2023/10/22 13:14:51;;;;;;;3.17;1.95;;;;;;;;;;5027996;28;20259;-44
2023/10/22 13:17:17;;;;;;;3.42;1.58;;;;;;;;;;5034836;28;20326;-44
2023/10/22 13:19:43;;;;;;;3.03;1.70;;;;;;;;;;5026176;28;20187;-45
2023/10/22 13:22:09;;;;;;;2.70;1.52;;;;;;;;;;5027196;28;20188;-44
2023/10/22 13:24:35;;;;;;;2.13;1.27;;;;;;;;;;5030303;28;20198;-44
2023/10/22 13:27:01;;;;;;;2.03;1.40;;;;;;;;;;5033485;28;20176;-44
2023/10/22 13:29:27;;;;;;;2.63;1.65;;;;;;;;;;5028460;28;20500;-44
2023/10/22 13:31:53;;;;;;;3.55;1.02;;;;;;;;;;5034811;28;20517;-44
2023/10/22 13:34:19;;;;;;;1.67;1.35;;;;;;;;;;5027689;28;20676;-44
2023/10/22 13:36:45;;;;;;;2.25;1.17;;;;;;;;;;5028741;28;20210;-44
2023/10/22 13:39:11;;;;;;;2.30;1.17;;;;;;;;;;5023911;28;20196;-44
2023/10/22 13:41:37;;;;;;;2.58;0.90;;;;;;;;;;5021432;28;20259;-44
2023/10/22 13:44:04;;;;;;;1.33;1.15;;;;;;;;;;5029135;28;20259;-44
2023/10/22 13:46:30;;;;;;;3.13;1.40;;;;;;;;;;5036277;28;20551;-44
2023/10/22 13:48:56;;;;;;;3.78;1.10;;;;;;;;;;5031421;28;20192;-44
2023/10/22 13:51:22;;;;;;;2.00;1.20;;;;;;;;;;5025824;28;20748;-44
2023/10/22 13:53:51;;;;;;;2.42;1.08;;;;;;;;;;5024384;28;20203;-44
2023/10/22 13:56:17;;;;;;;2.78;1.08;;;;;;;;;;5029063;28;20199;-44
2023/10/22 13:58:43;;;;;;;1.27;1.00;;;;;;;;;;5024534;28;20204;-44
2023/10/22 14:01:12;;;;;;;1.83;0.95;;;;;;;;;;5030919;28;20230;-44
2023/10/22 14:03:38;;;;;;;1.52;1.00;;;;;;;;;;5034779;28;20219;-44
2023/10/22 14:06:04;;;;;;;2.85;0.88;;;;;;;;;;5034011;28;20882;-44
2023/10/22 14:08:30;;;;;;;1.15;0.65;;;;;;;;;;5026980;28;20364;-44
2023/10/22 14:10:56;;;;;;;1.58;1.23;;;;;;;;;;5034100;28;20368;-45
2023/10/22 14:13:22;;;;;;;1.20;0.90;;;;;;;;;;5030052;28;20209;-45
2023/10/22 14:15:48;;;;;;;1.10;0.80;;;;;;;;;;5032377;28;20573;-44
2023/10/22 14:18:14;;;;;;;1.00;0.90;;;;;;;;;;5030023;28;20226;-44
2023/10/22 14:20:41;;;;;;;1.60;1.00;;;;;;;;;;5031176;28;20191;-44
2023/10/22 14:23:07;;;;;;;1.80;0.90;;;;;;;;;;5019020;28;20176;-44
2023/10/22 14:25:33;;;;;;;1.33;0.75;;;;;;;;;;5029028;28;20195;-44
2023/10/22 14:27:59;;;;;;;1.10;0.77;;;;;;;;;;5029544;28;20463;-44
2023/10/22 14:30:25;;;;;;;1.75;0.95;;;;;;;;;;5020558;28;20180;-44
2023/10/22 14:32:51;;;;;;;2.97;1.20;;;;;;;;;;5021775;28;20208;-44
2023/10/22 14:35:17;;;;;;;2.55;0.90;;;;;;;;;;5030136;28;20209;-44
2023/10/22 14:37:43;;;;;;;1.05;0.75;;;;;;;;;;5033370;28;20218;-44